createdAt,value
2019-02-23T00:02:49.973Z,85.12
2019-02-23T00:06:03.406Z,84.93
2019-02-23T00:09:16.865Z,84.26
2019-02-23T00:12:30.334Z,84.15
2019-02-23T00:15:43.773Z,84.28
2019-02-23T00:18:57.256Z,84.62
2019-02-23T00:22:11.005Z,84.89
2019-02-23T00:25:24.546Z,85.25
2019-02-23T00:28:38.332Z,85.08
2019-02-23T00:31:51.791Z,84.35
2019-02-23T00:35:05.548Z,84.37
2019-02-23T00:38:19.037Z,84.50
2019-02-23T00:41:32.502Z,84.66
2019-02-23T00:44:45.948Z,84.54
2019-02-23T00:47:59.408Z,84.38
2019-02-23T00:51:13.120Z,84.33
2019-02-23T00:54:26.583Z,84.12
2019-02-23T00:57:40.174Z,83.88
2019-02-23T01:00:54.053Z,83.89
2019-02-23T01:04:07.633Z,84.19
2019-02-23T01:07:21.355Z,84.25
2019-02-23T01:10:34.953Z,84.31
2019-02-23T01:13:48.814Z,84.22
2019-02-23T01:17:02.660Z,84.09
2019-02-23T01:20:16.759Z,83.78
2019-02-23T01:23:30.536Z,83.73
2019-02-23T01:26:44.020Z,83.33
2019-02-23T01:29:57.599Z,83.97
2019-02-23T01:33:11.196Z,84.11
2019-02-23T01:36:24.927Z,85.83
2019-02-23T01:39:38.513Z,85.43
2019-02-23T01:42:52.258Z,85.10
2019-02-23T01:46:06.178Z,84.60
2019-02-23T01:49:20.202Z,84.58
2019-02-23T01:52:33.787Z,84.79
2019-02-23T01:55:47.360Z,84.87
2019-02-23T01:59:00.944Z,85.04
2019-02-23T02:02:14.514Z,85.44
2019-02-23T02:05:28.271Z,85.02
2019-02-23T02:08:41.747Z,84.69
2019-02-23T02:11:56.008Z,84.40
2019-02-23T02:15:11.472Z,84.36
2019-02-23T02:18:24.946Z,84.23
2019-02-23T02:21:38.644Z,84.50
2019-02-23T02:24:52.137Z,84.20
2019-02-23T02:28:05.618Z,84.72
2019-02-23T02:31:19.180Z,85.42
2019-02-23T02:34:32.662Z,85.73
2019-02-23T02:37:46.256Z,86.07
2019-02-23T02:45:28.345Z,86.73
2019-02-23T02:48:41.771Z,87.41
2019-02-23T02:51:55.224Z,87.45
2019-02-23T02:55:09.117Z,87.70
2019-02-23T02:58:22.563Z,87.57
2019-02-23T03:01:36.022Z,87.18
2019-02-23T03:04:49.753Z,87.54
2019-02-23T03:08:03.189Z,87.33
2019-02-23T03:11:16.643Z,87.65
2019-02-23T03:14:30.077Z,87.86
2019-02-23T03:17:43.798Z,87.73
2019-02-23T03:20:57.242Z,87.47
2019-02-23T03:24:10.675Z,87.03
2019-02-23T03:27:24.137Z,86.67
2019-02-23T03:30:37.588Z,86.41
2019-02-23T03:33:51.038Z,86.12
2019-02-23T03:37:04.510Z,86.88
2019-02-23T03:40:17.938Z,86.95
2019-02-23T03:43:31.393Z,86.61
2019-02-23T03:46:44.856Z,86.79
2019-02-23T03:49:58.598Z,86.92
2019-02-23T03:53:12.050Z,86.40
2019-02-23T03:56:25.705Z,86.14
2019-02-23T03:59:39.141Z,86.02
2019-02-23T04:02:52.599Z,85.95
2019-02-23T04:06:06.359Z,85.85
2019-02-23T04:09:19.873Z,85.65
2019-02-23T04:12:33.589Z,85.58
2019-02-23T04:15:47.025Z,85.56
2019-02-23T04:19:00.578Z,85.76
2019-02-23T04:22:14.028Z,85.81
2019-02-23T04:25:27.740Z,85.58
2019-02-23T04:28:41.295Z,85.60
2019-02-23T04:31:54.754Z,84.53
2019-02-23T04:35:08.305Z,84.00
2019-02-23T04:38:21.763Z,84.81
2019-02-23T04:41:35.208Z,85.19
2019-02-23T04:44:48.904Z,85.14
2019-02-23T04:48:03.784Z,85.05
2019-02-23T04:51:17.563Z,84.66
2019-02-23T04:54:36.781Z,84.32
2019-02-23T04:57:50.238Z,84.37
2019-02-23T05:01:03.816Z,84.04
2019-02-23T05:04:17.354Z,83.93
2019-02-23T05:07:30.821Z,83.80
2019-02-23T05:10:44.264Z,83.62
2019-02-23T05:13:57.744Z,83.57
2019-02-23T05:17:11.488Z,83.48
2019-02-23T05:20:25.033Z,83.33
2019-02-23T05:23:38.494Z,83.05
2019-02-23T05:26:51.953Z,82.79
2019-02-23T05:30:07.110Z,82.71
2019-02-23T05:33:20.520Z,82.37
2019-02-23T05:36:33.963Z,82.38
2019-02-23T05:39:47.519Z,82.71
2019-02-23T05:43:01.523Z,82.58
2019-02-23T05:46:14.998Z,82.31
2019-02-23T05:49:28.452Z,82.51
2019-02-23T05:52:42.163Z,83.21
2019-02-23T05:55:55.869Z,83.27
2019-02-23T05:59:09.315Z,82.51
2019-02-23T06:02:23.414Z,83.15
2019-02-23T06:05:37.425Z,83.65
2019-02-23T06:08:50.862Z,83.71
2019-02-23T06:12:04.555Z,83.65
2019-02-23T06:15:17.995Z,83.44
2019-02-23T06:18:31.431Z,83.94
2019-02-23T06:21:53.466Z,83.66
2019-02-23T06:25:00.325Z,83.54
2019-02-23T06:28:14.155Z,83.11
2019-02-23T06:31:27.602Z,83.21
2019-02-23T06:34:41.387Z,83.35
2019-02-23T06:37:54.856Z,83.44
2019-02-23T06:41:08.291Z,83.69
2019-02-23T06:44:21.739Z,84.20
2019-02-23T06:47:35.181Z,83.91
2019-02-23T06:50:48.628Z,83.61
2019-02-23T06:54:02.082Z,84.07
2019-02-23T06:57:15.525Z,84.46
2019-02-23T07:00:29.366Z,84.39
2019-02-23T07:03:42.929Z,84.44
2019-02-23T07:06:56.382Z,84.75
2019-02-23T07:10:10.460Z,84.56
2019-02-23T07:13:24.199Z,84.48
2019-02-23T07:16:37.654Z,84.39
2019-02-23T07:19:51.090Z,84.65
2019-02-23T07:23:04.544Z,84.53
2019-02-23T07:26:18.281Z,84.54
2019-02-23T07:29:32.103Z,84.60
2019-02-23T07:32:45.916Z,84.67
2019-02-23T07:35:59.784Z,84.72
2019-02-23T07:39:13.190Z,84.66
2019-02-23T07:42:26.647Z,84.69
2019-02-23T07:45:40.118Z,85.14
2019-02-23T07:48:53.921Z,85.56
2019-02-23T07:52:07.719Z,85.49
2019-02-23T07:55:21.187Z,85.45
2019-02-23T07:58:34.631Z,85.32
2019-02-23T08:01:48.328Z,85.21
2019-02-23T08:05:01.920Z,84.83
2019-02-23T08:08:15.668Z,84.73
2019-02-23T08:11:29.158Z,83.99
2019-02-23T08:14:42.891Z,83.61
2019-02-23T08:17:56.447Z,82.75
2019-02-23T08:21:09.899Z,82.27
2019-02-23T08:24:23.751Z,81.02
2019-02-23T08:27:37.586Z,81.50
2019-02-23T08:30:51.040Z,81.19
2019-02-23T08:34:04.879Z,80.24
2019-02-23T08:37:18.895Z,80.00
2019-02-23T08:40:32.566Z,79.17
2019-02-23T08:43:46.332Z,80.19
2019-02-23T08:46:59.784Z,79.51
2019-02-23T08:50:13.384Z,78.94
2019-02-23T08:53:27.025Z,78.87
2019-02-23T08:56:40.510Z,78.72
2019-02-23T08:59:53.967Z,78.45
2019-02-23T09:03:07.690Z,77.46
2019-02-23T09:06:21.177Z,75.79
2019-02-23T09:09:34.877Z,74.80
2019-02-23T09:12:48.319Z,75.58
2019-02-23T09:16:01.852Z,74.72
2019-02-23T09:19:15.221Z,73.88
2019-02-23T09:22:28.791Z,72.96
2019-02-23T09:25:42.360Z,73.53
2019-02-23T09:28:55.799Z,72.49
2019-02-23T09:32:09.253Z,71.67
2019-02-23T09:35:22.727Z,70.92
2019-02-23T09:38:36.415Z,71.98
2019-02-23T09:41:49.877Z,71.14
2019-02-23T09:45:03.698Z,71.17
2019-02-23T09:48:17.261Z,70.85
2019-02-23T09:51:30.725Z,69.86
2019-02-23T09:54:44.179Z,69.77
2019-02-23T09:57:57.891Z,68.24
2019-02-23T10:01:11.348Z,67.73
2019-02-23T10:04:24.795Z,67.73
2019-02-23T10:07:38.281Z,66.79
2019-02-23T10:10:52.119Z,66.31
2019-02-23T10:14:07.447Z,66.44
2019-02-23T10:17:21.311Z,65.47
2019-02-23T10:20:35.080Z,63.75
2019-02-23T10:23:48.843Z,63.23
2019-02-23T10:27:02.297Z,62.16
2019-02-23T10:30:16.284Z,61.92
2019-02-23T10:33:29.722Z,61.27
2019-02-23T10:36:43.184Z,61.98
2019-02-23T10:39:56.911Z,62.41
2019-02-23T10:43:10.683Z,62.21
2019-02-23T10:46:24.118Z,62.05
2019-02-23T10:49:37.690Z,61.80
2019-02-23T10:52:51.135Z,59.74
2019-02-23T10:56:04.951Z,60.43
2019-02-23T10:59:18.695Z,60.19
2019-02-23T11:02:32.623Z,59.57
2019-02-23T11:05:46.434Z,58.74
2019-02-23T11:09:00.051Z,59.18
2019-02-23T11:12:13.727Z,58.20
2019-02-23T11:15:27.398Z,58.79
2019-02-23T11:18:40.898Z,59.22
2019-02-23T11:21:55.020Z,57.81
2019-02-23T11:25:10.598Z,57.75
2019-02-23T11:28:24.089Z,55.76
2019-02-23T11:31:37.528Z,55.68
2019-02-23T11:34:50.971Z,54.74
2019-02-23T11:38:04.677Z,50.61
2019-02-23T11:41:18.171Z,52.82
2019-02-23T11:44:31.660Z,51.43
2019-02-23T11:47:45.134Z,51.43
2019-02-23T11:50:59.187Z,50.45
2019-02-23T11:54:12.740Z,50.27
2019-02-23T11:57:29.870Z,49.59
2019-02-23T12:00:44.965Z,49.93
2019-02-23T12:03:58.875Z,49.30
2019-02-23T12:07:12.489Z,48.34
2019-02-23T12:10:25.988Z,46.25
2019-02-23T12:13:39.456Z,44.23
2019-02-23T12:16:53.081Z,43.78
2019-02-23T12:20:06.701Z,42.33
2019-02-23T12:23:20.412Z,42.45
2019-02-23T12:26:34.028Z,41.60
2019-02-23T12:29:47.751Z,41.86
2019-02-23T12:33:01.300Z,43.03
2019-02-23T12:36:14.815Z,42.01
2019-02-23T12:39:28.448Z,42.75
2019-02-23T12:42:42.041Z,42.21
2019-02-23T12:45:55.819Z,42.78
2019-02-23T12:49:09.403Z,41.56
2019-02-23T12:52:22.899Z,41.19
2019-02-23T12:55:36.765Z,40.87
2019-02-23T12:58:50.220Z,40.18
2019-02-23T13:02:04.211Z,40.57
2019-02-23T13:05:19.444Z,40.60
2019-02-23T13:09:30.382Z,41.57
2019-02-23T13:13:27.522Z,41.98
2019-02-23T13:17:13.375Z,42.05
2019-02-23T13:21:12.977Z,42.51
2019-02-23T13:24:39.310Z,43.14
2019-02-23T13:28:33.978Z,43.21
2019-02-23T13:32:28.222Z,42.54
2019-02-23T13:36:42.938Z,42.95
2019-02-23T13:40:15.002Z,42.54
2019-02-23T13:44:05.814Z,41.68
2019-02-23T13:47:47.313Z,41.06
2019-02-23T13:51:37.091Z,43.22
2019-02-23T13:55:31.803Z,42.98
2019-02-23T13:59:02.410Z,42.20
2019-02-23T14:02:38.197Z,42.74
2019-02-23T14:06:40.568Z,41.26
2019-02-23T14:10:52.786Z,41.52
2019-02-23T14:14:39.024Z,41.61
2019-02-23T14:18:26.512Z,41.06
2019-02-23T14:22:31.568Z,41.34
2019-02-23T14:26:35.396Z,40.62
2019-02-23T14:30:19.528Z,40.96
2019-02-23T14:33:53.918Z,41.50
2019-02-23T14:37:50.474Z,40.47
2019-02-23T14:41:36.364Z,41.98
2019-02-23T14:45:14.461Z,41.74
2019-02-23T14:48:58.298Z,41.11
2019-02-23T14:52:37.392Z,41.42
2019-02-23T14:56:38.494Z,41.78
2019-02-23T15:00:26.921Z,40.85
2019-02-23T15:03:59.984Z,41.33
2019-02-23T15:07:49.402Z,42.12
2019-02-23T15:11:51.963Z,40.97
2019-02-23T15:15:51.333Z,39.81
2019-02-23T15:19:38.488Z,41.24
2019-02-23T15:23:35.813Z,39.90
2019-02-23T15:27:18.695Z,39.04
2019-02-23T15:31:11.864Z,40.74
2019-02-23T15:34:52.940Z,39.91
2019-02-23T15:38:29.454Z,39.79
2019-02-23T15:42:16.059Z,39.69
2019-02-23T15:46:01.173Z,39.72
2019-02-23T15:49:34.299Z,39.88
2019-02-23T15:52:47.959Z,40.84
2019-02-23T15:56:01.423Z,40.15
2019-02-23T15:59:14.983Z,39.92
2019-02-23T16:02:28.522Z,39.59
2019-02-23T16:05:43.802Z,39.77
2019-02-23T16:08:58.539Z,40.33
2019-02-23T16:12:13.662Z,40.11
2019-02-23T16:15:27.224Z,40.67
2019-02-23T16:18:41.387Z,40.66
2019-02-23T16:21:54.975Z,41.71
2019-02-23T16:25:08.636Z,41.37
2019-02-23T16:28:22.502Z,41.96
2019-02-23T16:31:35.952Z,42.66
2019-02-23T16:34:49.475Z,42.23
2019-02-23T16:38:03.246Z,42.41
2019-02-23T16:41:16.696Z,42.88
2019-02-23T16:44:30.204Z,43.69
2019-02-23T16:47:44.296Z,44.36
2019-02-23T16:50:57.753Z,45.67
2019-02-23T16:54:11.221Z,45.36
2019-02-23T16:57:24.687Z,45.26
2019-02-23T17:00:38.159Z,46.67
2019-02-23T17:03:51.621Z,45.67
2019-02-23T17:07:05.165Z,46.60
2019-02-23T17:10:18.778Z,47.46
2019-02-23T17:13:32.226Z,48.11
2019-02-23T17:16:46.166Z,48.54
2019-02-23T17:19:59.813Z,50.01
2019-02-23T17:23:13.258Z,50.25
2019-02-23T17:26:27.453Z,50.93
2019-02-23T17:29:40.909Z,52.03
2019-02-23T17:32:54.697Z,53.02
2019-02-23T17:36:08.153Z,54.18
2019-02-23T17:39:21.594Z,54.25
2019-02-23T17:42:35.372Z,54.78
2019-02-23T17:45:48.837Z,56.09
2019-02-23T17:49:02.384Z,56.52
2019-02-23T17:52:16.227Z,58.02
2019-02-23T17:55:29.670Z,58.69
2019-02-23T17:58:43.240Z,59.10
2019-02-23T18:01:56.987Z,59.36
2019-02-23T18:05:10.542Z,60.68
2019-02-23T18:08:24.420Z,60.74
2019-02-23T18:11:37.871Z,60.79
2019-02-23T18:14:51.339Z,60.73
2019-02-23T18:18:05.059Z,62.12
2019-02-23T18:21:19.252Z,61.90
2019-02-23T18:24:32.808Z,62.44
2019-02-23T18:27:46.338Z,62.54
2019-02-23T18:30:59.781Z,63.07
2019-02-23T18:34:14.137Z,63.20
2019-02-23T18:37:27.608Z,63.04
2019-02-23T18:40:41.068Z,63.94
2019-02-23T18:43:54.511Z,63.92
2019-02-23T18:47:08.258Z,63.89
2019-02-23T18:50:22.052Z,64.93
2019-02-23T18:53:35.614Z,64.65
2019-02-23T18:57:08.754Z,65.04
2019-02-23T19:00:24.568Z,65.38
2019-02-23T19:03:38.155Z,65.55
2019-02-23T19:06:52.226Z,65.40
2019-02-23T19:10:07.831Z,65.84
2019-02-23T19:13:21.288Z,66.33
2019-02-23T19:16:34.733Z,66.17
2019-02-23T19:19:48.284Z,66.57
2019-02-23T19:23:03.315Z,66.06
2019-02-23T19:29:31.969Z,66.25
2019-02-23T19:32:45.771Z,66.38
2019-02-23T19:35:59.259Z,66.88
2019-02-23T19:39:12.808Z,67.69
2019-02-23T19:42:26.256Z,67.68
2019-02-23T19:45:39.753Z,68.20
2019-02-23T19:48:53.259Z,68.14
2019-02-23T19:52:06.961Z,68.35
2019-02-23T19:55:20.469Z,68.46
2019-02-23T19:58:34.244Z,69.21
2019-02-23T20:01:47.787Z,68.98
2019-02-23T20:05:01.274Z,68.86
2019-02-23T20:08:15.355Z,69.71
2019-02-23T20:11:29.043Z,69.85
2019-02-23T20:14:42.665Z,69.92
2019-02-23T20:17:56.618Z,70.54
2019-02-23T20:21:10.109Z,70.64
2019-02-23T20:24:24.407Z,70.63
2019-02-23T20:27:38.042Z,70.58
2019-02-23T20:30:51.674Z,70.48
2019-02-23T20:34:05.471Z,70.54
2019-02-23T20:37:18.911Z,70.74
2019-02-23T20:40:32.657Z,70.50
2019-02-23T20:43:46.357Z,70.94
2019-02-23T20:46:59.803Z,70.74
2019-02-23T20:50:13.291Z,70.90
2019-02-23T20:53:26.743Z,71.51
2019-02-23T20:56:40.462Z,71.00
2019-02-23T20:59:54.000Z,71.76
2019-02-23T21:03:07.803Z,72.13
2019-02-23T21:06:22.190Z,72.57
2019-02-23T21:09:35.742Z,72.07
2019-02-23T21:12:49.219Z,72.36
2019-02-23T21:16:02.767Z,72.18
2019-02-23T21:19:16.341Z,72.54
2019-02-23T21:22:30.134Z,73.15
2019-02-23T21:25:43.612Z,73.14
2019-02-23T21:33:12.624Z,73.02
2019-02-23T21:36:29.205Z,73.71
2019-02-23T21:39:42.849Z,73.08
2019-02-23T21:43:16.282Z,72.73
2019-02-23T21:46:29.798Z,72.80
2019-02-23T21:49:43.267Z,72.79
2019-02-23T21:52:56.738Z,73.77
2019-02-23T21:56:11.092Z,73.94
2019-02-23T21:59:24.565Z,74.25
2019-02-23T22:02:38.178Z,74.16
2019-02-23T22:05:51.731Z,74.53
2019-02-23T22:09:05.659Z,74.27
2019-02-23T22:12:19.371Z,74.04
2019-02-23T22:15:33.000Z,74.45
2019-02-23T22:18:46.556Z,74.67
2019-02-23T22:22:00.315Z,74.79
2019-02-23T22:25:13.886Z,75.14
2019-02-23T22:28:27.644Z,75.47
2019-02-23T22:31:41.270Z,75.06
2019-02-23T22:34:54.918Z,75.04
2019-02-23T22:38:09.067Z,75.45
2019-02-23T22:41:22.798Z,75.33
2019-02-23T22:44:36.573Z,74.85
2019-02-23T22:47:50.172Z,74.72
2019-02-23T22:51:03.768Z,74.59
2019-02-23T22:54:17.239Z,74.92
2019-02-23T23:01:46.972Z,74.83
2019-02-23T23:05:01.120Z,75.95
2019-02-23T23:08:15.063Z,76.46
2019-02-23T23:11:28.512Z,76.44
2019-02-23T23:14:42.593Z,76.46
2019-02-23T23:17:56.067Z,76.24
2019-02-23T23:21:11.497Z,76.14
2019-02-23T23:24:25.119Z,75.52
2019-02-23T23:27:38.588Z,75.56
2019-02-23T23:30:52.286Z,75.73
2019-02-23T23:34:05.971Z,75.92
2019-02-23T23:37:19.658Z,76.08
2019-02-23T23:40:33.247Z,76.10
2019-02-23T23:43:46.814Z,76.32
2019-02-23T23:47:00.314Z,77.02
2019-02-23T23:50:13.741Z,77.13
2019-02-23T23:53:27.327Z,76.74
2019-02-23T23:56:40.923Z,77.56
2019-02-23T23:59:54.602Z,77.88
